Time;durP1;ratioP1;P1;durP2;ratioP2;P2;SDS_P1;SDS_P2;PMS_P1;PMS_P2;Temp;Humidity;BMP_temperature;BMP_pressure;BME280_temperature;BME280_humidity;BME280_pressure;Samples;Min_cycle;Max_cycle;Signal;HPM_P1;HPM_P2
2023/11/17 00:00:54;;;;;;;26.35;10.63;;;;;;;;;;5049980;28;20092;-83
2023/11/17 00:03:19;;;;;;;34.40;11.13;;;;;;;;;;5049701;28;20163;-82
2023/11/17 00:05:45;;;;;;;27.13;11.18;;;;;;;;;;5050822;28;20111;-84
2023/11/17 00:08:10;;;;;;;23.60;10.65;;;;;;;;;;5049660;28;20017;-83
2023/11/17 00:10:38;;;;;;;30.33;11.52;;;;;;;;;;5049780;28;20039;-84
2023/11/17 00:13:04;;;;;;;32.58;11.85;;;;;;;;;;5049820;28;20052;-82
2023/11/17 00:15:30;;;;;;;29.70;11.02;;;;;;;;;;5050270;28;20118;-83
2023/11/17 00:17:55;;;;;;;31.85;12.02;;;;;;;;;;5051209;28;20032;-84
2023/11/17 00:20:21;;;;;;;27.40;11.35;;;;;;;;;;5050302;28;20166;-83
2023/11/17 00:22:47;;;;;;;23.75;10.43;;;;;;;;;;5051084;28;20029;-84
2023/11/17 00:25:17;;;;;;;25.42;11.10;;;;;;;;;;5055427;28;20025;-84
2023/11/17 00:27:46;;;;;;;23.98;11.43;;;;;;;;;;5054513;28;20046;-83
2023/11/17 00:30:13;;;;;;;26.63;10.65;;;;;;;;;;5054084;28;20370;-83
2023/11/17 00:32:39;;;;;;;24.73;10.70;;;;;;;;;;5053945;28;20440;-83
2023/11/17 00:35:06;;;;;;;22.83;10.10;;;;;;;;;;5052604;28;20215;-83
2023/11/17 00:37:32;;;;;;;23.90;10.02;;;;;;;;;;5055538;28;20028;-82
2023/11/17 00:39:57;;;;;;;22.40;10.18;;;;;;;;;;5055321;28;20020;-83
2023/11/17 00:42:23;;;;;;;27.42;10.50;;;;;;;;;;5054341;28;20017;-84
2023/11/17 00:44:48;;;;;;;24.92;9.05;;;;;;;;;;5054980;28;20056;-84
2023/11/17 00:47:15;;;;;;;24.38;9.98;;;;;;;;;;5053455;28;20083;-83
2023/11/17 00:49:42;;;;;;;24.52;9.40;;;;;;;;;;5055324;28;20074;-84
2023/11/17 00:52:08;;;;;;;25.05;10.25;;;;;;;;;;5054122;28;20136;-84
2023/11/17 00:54:42;;;;;;;21.08;9.70;;;;;;;;;;5054913;28;20059;-84
2023/11/17 00:57:07;;;;;;;23.83;10.13;;;;;;;;;;5053854;28;20075;-84
2023/11/17 00:59:35;;;;;;;22.15;10.15;;;;;;;;;;5055273;28;20021;-84
2023/11/17 01:02:04;;;;;;;21.33;9.40;;;;;;;;;;5054143;28;20488;-83
2023/11/17 01:04:29;;;;;;;22.65;10.35;;;;;;;;;;5053136;28;20032;-84
2023/11/17 01:06:54;;;;;;;25.75;9.75;;;;;;;;;;5054105;28;20021;-84
2023/11/17 01:09:20;;;;;;;21.75;9.55;;;;;;;;;;5053623;28;20021;-83
2023/11/17 01:11:45;;;;;;;22.80;10.98;;;;;;;;;;5053627;28;20027;-83
2023/11/17 01:14:11;;;;;;;24.27;10.48;;;;;;;;;;5054414;28;20009;-83
2023/11/17 01:16:36;;;;;;;30.27;11.57;;;;;;;;;;5061300;28;20066;-83
2023/11/17 01:19:02;;;;;;;25.45;9.70;;;;;;;;;;5060513;28;20012;-84
2023/11/17 01:21:31;;;;;;;26.88;10.45;;;;;;;;;;5058766;28;20016;-84
2023/11/17 01:23:56;;;;;;;26.92;10.27;;;;;;;;;;5068803;28;20465;-83
2023/11/17 01:26:22;;;;;;;26.90;9.73;;;;;;;;;;5060688;28;20029;-83
2023/11/17 01:28:47;;;;;;;24.35;10.40;;;;;;;;;;5070868;28;20152;-84
2023/11/17 01:31:21;;;;;;;24.20;10.10;;;;;;;;;;5058709;28;20013;-83
2023/11/17 01:33:49;;;;;;;25.38;10.43;;;;;;;;;;5068545;28;20425;-83
2023/11/17 01:36:15;;;;;;;21.38;9.60;;;;;;;;;;5065432;28;20373;-84
2023/11/17 01:38:40;;;;;;;23.50;9.82;;;;;;;;;;5067185;28;20016;-83
2023/11/17 01:41:05;;;;;;;29.52;11.18;;;;;;;;;;5068387;28;20010;-83
2023/11/17 01:43:34;;;;;;;23.90;9.82;;;;;;;;;;5060847;28;20048;-83
2023/11/17 01:46:00;;;;;;;23.95;8.85;;;;;;;;;;5053077;28;20469;-84
2023/11/17 01:48:25;;;;;;;27.05;11.23;;;;;;;;;;5054132;28;20508;-83
2023/11/17 01:50:52;;;;;;;20.48;9.77;;;;;;;;;;5064252;28;20021;-83
2023/11/17 01:53:21;;;;;;;31.27;11.18;;;;;;;;;;5060689;28;20105;-84
2023/11/17 01:55:46;;;;;;;21.70;9.63;;;;;;;;;;5073959;28;20029;-83
2023/11/17 01:58:11;;;;;;;22.98;10.02;;;;;;;;;;5072891;28;20019;-84
2023/11/17 02:00:37;;;;;;;22.15;9.68;;;;;;;;;;5068394;28;20021;-83
2023/11/17 02:03:02;;;;;;;23.98;9.90;;;;;;;;;;5052854;28;20115;-83
2023/11/17 02:05:28;;;;;;;27.70;10.18;;;;;;;;;;5062196;28;20038;-83
2023/11/17 02:08:12;;;;;;;21.70;9.40;;;;;;;;;;5072420;28;20032;-83
2023/11/17 02:10:43;;;;;;;25.90;9.80;;;;;;;;;;5063158;28;20589;-83
2023/11/17 02:13:14;;;;;;;20.88;9.60;;;;;;;;;;5056659;28;20581;-83
2023/11/17 02:15:43;;;;;;;22.63;9.65;;;;;;;;;;5074026;28;20021;-84
2023/11/17 02:18:15;;;;;;;22.02;9.32;;;;;;;;;;5072729;28;20483;-83
2023/11/17 02:20:41;;;;;;;23.58;10.70;;;;;;;;;;5071288;28;20027;-83
2023/11/17 02:23:15;;;;;;;24.27;9.50;;;;;;;;;;5058396;28;20021;-83
2023/11/17 02:25:51;;;;;;;25.52;10.45;;;;;;;;;;5070993;28;20028;-84
2023/11/17 02:28:35;;;;;;;26.48;10.80;;;;;;;;;;5068289;28;20064;-84
2023/11/17 02:31:17;;;;;;;21.10;9.60;;;;;;;;;;5072072;28;20035;-83
2023/11/17 02:33:48;;;;;;;26.73;10.77;;;;;;;;;;5056273;28;20372;-84
2023/11/17 02:36:20;;;;;;;24.27;10.52;;;;;;;;;;5053106;28;20120;-85
2023/11/17 02:38:56;;;;;;;29.60;11.10;;;;;;;;;;5052020;28;20681;-84
2023/11/17 02:41:32;;;;;;;28.35;12.10;;;;;;;;;;5063289;28;20015;-84
2023/11/17 02:44:00;;;;;;;25.58;11.52;;;;;;;;;;5058284;28;20055;-84
2023/11/17 02:46:26;;;;;;;31.98;12.32;;;;;;;;;;5071280;28;20008;-84
2023/11/17 02:48:51;;;;;;;30.70;12.98;;;;;;;;;;5071650;28;20096;-83
2023/11/17 02:51:22;;;;;;;29.98;12.15;;;;;;;;;;5061616;28;20103;-84
2023/11/17 02:53:51;;;;;;;28.35;12.52;;;;;;;;;;5065101;28;20047;-84
2023/11/17 02:56:18;;;;;;;25.05;12.60;;;;;;;;;;5058187;28;20017;-84
2023/11/17 02:58:45;;;;;;;31.08;12.57;;;;;;;;;;5057710;28;20341;-84
2023/11/17 03:01:10;;;;;;;27.73;12.57;;;;;;;;;;5070450;28;20017;-84
2023/11/17 03:03:39;;;;;;;29.27;11.18;;;;;;;;;;5058897;28;20480;-83
2023/11/17 03:06:05;;;;;;;27.42;12.57;;;;;;;;;;5054002;28;20023;-84
2023/11/17 03:08:31;;;;;;;30.73;12.38;;;;;;;;;;5071072;28;20345;-84
2023/11/17 03:11:02;;;;;;;30.70;12.38;;;;;;;;;;5070541;28;20025;-82
2023/11/17 03:13:27;;;;;;;29.52;12.80;;;;;;;;;;5071185;28;20025;-84
2023/11/17 03:15:53;;;;;;;34.28;13.35;;;;;;;;;;5060839;28;20025;-84
2023/11/17 03:18:18;;;;;;;27.55;12.13;;;;;;;;;;5057667;28;20024;-84
2023/11/17 03:20:46;;;;;;;28.10;12.70;;;;;;;;;;5058832;28;20059;-84
2023/11/17 03:23:11;;;;;;;30.55;12.82;;;;;;;;;;5067164;28;20031;-84
2023/11/17 03:25:39;;;;;;;28.67;12.38;;;;;;;;;;5072298;28;20020;-84
2023/11/17 03:28:04;;;;;;;33.50;13.38;;;;;;;;;;5058496;28;20131;-84
2023/11/17 03:30:30;;;;;;;30.10;12.73;;;;;;;;;;5050950;28;20017;-84
2023/11/17 03:32:58;;;;;;;29.10;12.65;;;;;;;;;;5061463;28;20039;-84
2023/11/17 03:35:23;;;;;;;29.13;13.30;;;;;;;;;;5057870;28;20391;-84
2023/11/17 03:37:50;;;;;;;31.13;13.15;;;;;;;;;;5062136;28;20084;-84
2023/11/17 03:40:18;;;;;;;28.77;12.07;;;;;;;;;;5052907;28;20381;-83
2023/11/17 03:42:43;;;;;;;29.20;13.00;;;;;;;;;;5070767;28;20357;-84
2023/11/17 03:45:12;;;;;;;32.05;13.93;;;;;;;;;;5070600;28;20021;-84
2023/11/17 03:47:40;;;;;;;35.03;13.50;;;;;;;;;;5070922;28;20472;-84
2023/11/17 03:50:06;;;;;;;34.97;14.18;;;;;;;;;;5070522;28;20108;-83
2023/11/17 03:52:32;;;;;;;34.80;13.98;;;;;;;;;;5056079;28;20028;-84
2023/11/17 03:55:00;;;;;;;33.47;14.27;;;;;;;;;;5071168;28;20021;-84
2023/11/17 03:57:26;;;;;;;34.42;13.45;;;;;;;;;;5071843;28;20066;-82
2023/11/17 03:59:53;;;;;;;32.60;12.88;;;;;;;;;;5070965;28;20016;-84
2023/11/17 04:02:18;;;;;;;34.20;15.52;;;;;;;;;;5055518;28;20361;-83
2023/11/17 04:04:44;;;;;;;42.45;15.27;;;;;;;;;;5057187;28;20027;-84
2023/11/17 04:07:11;;;;;;;35.50;14.95;;;;;;;;;;5057941;28;20063;-84
2023/11/17 04:09:36;;;;;;;45.03;15.30;;;;;;;;;;5057093;28;20021;-84
2023/11/17 04:12:02;;;;;;;33.85;15.45;;;;;;;;;;5072063;28;20019;-84
2023/11/17 04:14:36;;;;;;;39.92;14.52;;;;;;;;;;5057633;28;20407;-84
2023/11/17 04:17:01;;;;;;;41.75;15.93;;;;;;;;;;5061992;28;20021;-83
2023/11/17 04:19:26;;;;;;;33.97;14.13;;;;;;;;;;5057718;28;20028;-84
2023/11/17 04:21:52;;;;;;;33.10;15.15;;;;;;;;;;5048494;28;20131;-84
2023/11/17 04:24:17;;;;;;;40.70;15.85;;;;;;;;;;5066582;28;20505;-84
2023/11/17 04:26:42;;;;;;;41.83;15.90;;;;;;;;;;5055840;28;20167;-84
2023/11/17 04:29:08;;;;;;;31.70;14.82;;;;;;;;;;5059595;28;20074;-84
2023/11/17 04:31:33;;;;;;;42.33;16.08;;;;;;;;;;5070481;28;20021;-84
2023/11/17 04:33:59;;;;;;;41.60;16.77;;;;;;;;;;5064933;28;20028;-85
2023/11/17 04:36:25;;;;;;;32.22;14.27;;;;;;;;;;5062603;28;20375;-84
2023/11/17 04:38:50;;;;;;;35.63;15.57;;;;;;;;;;5066416;28;20067;-84
2023/11/17 04:41:16;;;;;;;42.25;16.58;;;;;;;;;;5060915;28;20021;-84
2023/11/17 04:43:42;;;;;;;46.53;16.52;;;;;;;;;;5054651;28;20070;-84
2023/11/17 04:46:07;;;;;;;42.65;17.33;;;;;;;;;;5050069;28;20031;-84
2023/11/17 04:48:32;;;;;;;35.05;15.40;;;;;;;;;;5065271;28;20021;-84
2023/11/17 04:50:59;;;;;;;39.60;16.10;;;;;;;;;;5050686;28;20017;-84
2023/11/17 04:53:24;;;;;;;43.65;17.80;;;;;;;;;;5063630;28;20055;-84
2023/11/17 04:55:52;;;;;;;46.78;16.95;;;;;;;;;;5068281;28;20056;-84
2023/11/17 04:58:21;;;;;;;47.63;19.17;;;;;;;;;;5071621;28;20036;-84
2023/11/17 05:00:47;;;;;;;55.45;17.63;;;;;;;;;;5057156;28;20411;-84
2023/11/17 05:03:12;;;;;;;44.30;16.90;;;;;;;;;;5067302;28;20388;-84
2023/11/17 05:05:37;;;;;;;40.17;16.17;;;;;;;;;;5065376;28;20024;-83
2023/11/17 05:08:03;;;;;;;45.72;17.33;;;;;;;;;;5051743;28;20528;-84
2023/11/17 05:10:29;;;;;;;44.72;15.95;;;;;;;;;;5065191;28;20035;-84
2023/11/17 05:12:54;;;;;;;47.72;17.55;;;;;;;;;;5071051;28;20484;-83
2023/11/17 05:15:24;;;;;;;47.38;17.92;;;;;;;;;;5059733;28;20029;-84
2023/11/17 05:17:49;;;;;;;42.35;17.27;;;;;;;;;;5070257;28;20032;-84
2023/11/17 05:20:15;;;;;;;44.70;16.85;;;;;;;;;;5059473;28;20066;-83
2023/11/17 05:22:41;;;;;;;44.13;17.65;;;;;;;;;;5067800;28;20053;-84
2023/11/17 05:25:06;;;;;;;40.53;16.52;;;;;;;;;;5073176;28;20352;-84
2023/11/17 05:27:33;;;;;;;44.33;17.77;;;;;;;;;;5067424;28;20032;-83
2023/11/17 05:29:58;;;;;;;49.92;19.88;;;;;;;;;;5067740;28;20492;-83
2023/11/17 05:32:25;;;;;;;48.78;19.02;;;;;;;;;;5073259;28;20029;-83
2023/11/17 05:34:54;;;;;;;41.53;16.08;;;;;;;;;;5060433;28;20366;-83
2023/11/17 05:37:20;;;;;;;47.78;17.58;;;;;;;;;;5072894;28;20059;-84
2023/11/17 05:39:45;;;;;;;46.83;17.98;;;;;;;;;;5066427;28;20064;-84
2023/11/17 05:42:11;;;;;;;43.88;17.27;;;;;;;;;;5070871;28;20017;-84
2023/11/17 05:44:36;;;;;;;42.95;17.15;;;;;;;;;;5073883;28;20021;-83
2023/11/17 05:47:02;;;;;;;41.53;16.50;;;;;;;;;;5074133;28;20020;-82
2023/11/17 05:49:28;;;;;;;47.85;17.52;;;;;;;;;;5065759;28;20040;-83
2023/11/17 05:51:54;;;;;;;46.70;17.25;;;;;;;;;;5059523;28;20472;-84
2023/11/17 05:54:19;;;;;;;51.83;18.13;;;;;;;;;;5071926;28;20025;-84
2023/11/17 05:56:45;;;;;;;41.05;15.80;;;;;;;;;;5061544;28;20032;-84
2023/11/17 05:59:11;;;;;;;44.80;18.30;;;;;;;;;;5069652;28;20050;-84
2023/11/17 06:01:37;;;;;;;41.13;17.35;;;;;;;;;;5072007;28;20365;-83
2023/11/17 06:04:02;;;;;;;52.33;17.00;;;;;;;;;;5067502;28;20025;-84
2023/11/17 06:06:28;;;;;;;44.92;15.70;;;;;;;;;;5060939;28;20468;-84
2023/11/17 06:08:53;;;;;;;40.33;16.33;;;;;;;;;;5073976;28;20020;-84
2023/11/17 06:11:27;;;;;;;44.10;15.95;;;;;;;;;;5067486;28;20013;-84
2023/11/17 06:13:53;;;;;;;48.30;15.95;;;;;;;;;;5052556;28;20476;-84
2023/11/17 06:16:18;;;;;;;38.50;17.02;;;;;;;;;;5066155;28;20125;-84
2023/11/17 06:18:44;;;;;;;40.47;15.68;;;;;;;;;;5072346;28;20033;-84
2023/11/17 06:21:10;;;;;;;44.05;16.73;;;;;;;;;;5056126;28;20075;-84
2023/11/17 06:23:35;;;;;;;44.78;17.02;;;;;;;;;;5056831;28;20073;-84
2023/11/17 06:26:04;;;;;;;40.00;16.02;;;;;;;;;;5062074;28;20029;-84
2023/11/17 06:28:29;;;;;;;44.00;15.38;;;;;;;;;;5063451;28;20056;-83
2023/11/17 06:30:55;;;;;;;42.22;16.50;;;;;;;;;;5072258;28;20024;-83
2023/11/17 06:33:22;;;;;;;47.78;17.40;;;;;;;;;;5059183;28;20025;-83
2023/11/17 06:35:49;;;;;;;49.78;17.20;;;;;;;;;;5065854;28;20527;-84
2023/11/17 06:38:16;;;;;;;43.38;15.85;;;;;;;;;;5064973;28;20325;-84
2023/11/17 06:40:42;;;;;;;45.10;16.38;;;;;;;;;;5070316;28;20051;-85
2023/11/17 06:43:08;;;;;;;42.53;16.05;;;;;;;;;;5062702;28;20084;-84
2023/11/17 06:45:34;;;;;;;44.95;15.88;;;;;;;;;;5052017;28;20393;-83
2023/11/17 06:47:59;;;;;;;40.15;16.45;;;;;;;;;;5061067;28;20051;-84
2023/11/17 06:50:24;;;;;;;42.53;16.27;;;;;;;;;;5070746;28;20035;-84
2023/11/17 06:52:49;;;;;;;42.38;16.30;;;;;;;;;;5052547;28;20021;-84
2023/11/17 06:55:15;;;;;;;42.65;17.27;;;;;;;;;;5051943;28;20051;-83
2023/11/17 06:57:43;;;;;;;45.25;15.07;;;;;;;;;;5065916;28;20021;-84
2023/11/17 07:00:12;;;;;;;43.85;17.83;;;;;;;;;;5062750;28;20059;-83
2023/11/17 07:02:37;;;;;;;44.10;16.77;;;;;;;;;;5057606;28;20111;-84
2023/11/17 07:05:06;;;;;;;41.42;16.95;;;;;;;;;;5063708;28;20106;-84
2023/11/17 07:07:31;;;;;;;45.47;18.02;;;;;;;;;;5054163;28;20151;-83
2023/11/17 07:09:56;;;;;;;44.50;16.20;;;;;;;;;;5058688;28;20111;-84
2023/11/17 07:12:23;;;;;;;49.70;18.55;;;;;;;;;;5052170;28;20039;-84
2023/11/17 07:14:49;;;;;;;50.40;17.80;;;;;;;;;;5057939;28;20036;-83
2023/11/17 07:17:15;;;;;;;44.22;16.42;;;;;;;;;;5061018;28;20130;-84
2023/11/17 07:19:41;;;;;;;44.45;17.67;;;;;;;;;;5066723;28;20016;-84
2023/11/17 07:22:07;;;;;;;44.72;17.25;;;;;;;;;;5061348;28;20471;-84
2023/11/17 07:24:32;;;;;;;46.28;16.90;;;;;;;;;;5054716;28;20025;-84
2023/11/17 07:26:58;;;;;;;48.70;18.67;;;;;;;;;;5054314;28;20101;-84
2023/11/17 07:29:23;;;;;;;52.58;16.88;;;;;;;;;;5052740;28;20013;-84
2023/11/17 07:31:50;;;;;;;39.70;16.90;;;;;;;;;;5060371;28;20029;-84
2023/11/17 07:34:16;;;;;;;50.88;18.23;;;;;;;;;;5057471;28;20715;-84
2023/11/17 07:36:42;;;;;;;44.97;16.75;;;;;;;;;;5051006;28;20124;-84
2023/11/17 07:39:09;;;;;;;40.60;16.55;;;;;;;;;;5044179;28;20012;-83
2023/11/17 07:41:36;;;;;;;44.60;16.25;;;;;;;;;;5050851;28;20120;-84
2023/11/17 07:44:01;;;;;;;47.70;16.02;;;;;;;;;;5058007;28;20020;-84
2023/11/17 07:46:30;;;;;;;40.10;16.17;;;;;;;;;;5059249;28;20510;-83
2023/11/17 07:48:55;;;;;;;48.03;16.67;;;;;;;;;;5066144;28;20020;-84
2023/11/17 07:51:21;;;;;;;45.90;17.40;;;;;;;;;;5052032;28;20009;-85
2023/11/17 07:53:46;;;;;;;45.00;16.38;;;;;;;;;;5049644;28;20020;-84
2023/11/17 07:56:11;;;;;;;49.67;18.10;;;;;;;;;;5049826;28;20017;-84
2023/11/17 07:58:41;;;;;;;47.00;18.08;;;;;;;;;;5051099;28;20075;-85
2023/11/17 08:01:09;;;;;;;52.33;19.60;;;;;;;;;;5065303;28;20419;-84
2023/11/17 08:03:35;;;;;;;45.58;17.50;;;;;;;;;;5052797;28;20431;-84
2023/11/17 08:06:02;;;;;;;43.42;16.85;;;;;;;;;;5051751;28;20428;-85
2023/11/17 08:08:27;;;;;;;52.28;16.45;;;;;;;;;;5050900;28;20017;-84
2023/11/17 08:10:53;;;;;;;43.30;16.17;;;;;;;;;;5051930;28;20040;-85
2023/11/17 08:13:19;;;;;;;43.28;15.73;;;;;;;;;;5058538;28;20020;-85
2023/11/17 08:16:02;;;;;;;39.60;16.48;;;;;;;;;;5071490;28;20758;-85
2023/11/17 08:18:28;;;;;;;47.10;16.77;;;;;;;;;;5064228;28;20044;-85
2023/11/17 08:20:53;;;;;;;39.95;14.93;;;;;;;;;;5050486;28;20021;-85
2023/11/17 08:23:21;;;;;;;42.30;16.17;;;;;;;;;;5056679;28;20013;-85
2023/11/17 08:25:48;;;;;;;36.50;15.23;;;;;;;;;;5070920;28;20380;-85
2023/11/17 08:28:15;;;;;;;39.10;14.60;;;;;;;;;;5056848;28;20426;-84
2023/11/17 08:30:41;;;;;;;45.28;16.58;;;;;;;;;;5065914;28;20196;-85
2023/11/17 08:33:07;;;;;;;36.65;15.25;;;;;;;;;;5063688;28;20048;-85
2023/11/17 08:35:32;;;;;;;40.10;16.02;;;;;;;;;;5070603;28;20735;-84
2023/11/17 08:37:57;;;;;;;34.33;12.43;;;;;;;;;;5051757;28;20017;-85
2023/11/17 08:40:23;;;;;;;41.20;15.90;;;;;;;;;;5053336;28;20098;-85
2023/11/17 08:42:49;;;;;;;45.42;15.88;;;;;;;;;;5063040;28;20044;-85
2023/11/17 08:45:15;;;;;;;41.33;14.80;;;;;;;;;;5068812;28;20024;-85
2023/11/17 08:47:40;;;;;;;35.97;14.75;;;;;;;;;;5068578;28;20429;-84
2023/11/17 08:50:07;;;;;;;27.95;10.98;;;;;;;;;;5054727;28;20088;-85
2023/11/17 08:52:36;;;;;;;36.10;13.88;;;;;;;;;;5068787;28;20360;-85
2023/11/17 08:55:05;;;;;;;35.05;13.32;;;;;;;;;;5054657;28;20021;-85
2023/11/17 08:57:34;;;;;;;36.42;15.25;;;;;;;;;;5054839;28;20020;-85
2023/11/17 08:59:59;;;;;;;32.13;13.70;;;;;;;;;;5064355;28;20031;-85
2023/11/17 09:02:26;;;;;;;25.60;10.98;;;;;;;;;;5060467;28;20010;-85
2023/11/17 09:04:52;;;;;;;37.33;14.77;;;;;;;;;;5068369;28;20377;-84
2023/11/17 09:07:18;;;;;;;31.35;12.35;;;;;;;;;;5068268;28;20472;-85
2023/11/17 09:09:43;;;;;;;28.90;12.25;;;;;;;;;;5055685;28;20242;-85
2023/11/17 09:12:09;;;;;;;30.35;12.60;;;;;;;;;;5055664;28;20112;-85
2023/11/17 09:14:36;;;;;;;29.45;12.50;;;;;;;;;;5059615;28;20013;-84
2023/11/17 09:17:06;;;;;;;31.73;12.82;;;;;;;;;;5054190;28;20052;-85
2023/11/17 09:19:32;;;;;;;28.42;10.27;;;;;;;;;;5056822;28;20544;-84
2023/11/17 09:21:59;;;;;;;30.23;12.10;;;;;;;;;;5053888;28;20597;-85
2023/11/17 09:24:25;;;;;;;34.13;13.95;;;;;;;;;;5064820;28;20361;-85
2023/11/17 09:26:50;;;;;;;29.90;13.23;;;;;;;;;;5056508;28;20047;-85
2023/11/17 09:29:15;;;;;;;32.80;12.00;;;;;;;;;;5055305;28;20094;-84
2023/11/17 09:31:41;;;;;;;33.65;13.27;;;;;;;;;;5073951;28;20032;-85
2023/11/17 09:34:08;;;;;;;29.98;12.90;;;;;;;;;;5073875;28;20104;-84
2023/11/17 09:36:36;;;;;;;29.27;12.65;;;;;;;;;;5073709;28;20052;-84
2023/11/17 09:39:01;;;;;;;30.17;11.82;;;;;;;;;;5065995;28;20130;-84
2023/11/17 09:41:27;;;;;;;33.70;13.43;;;;;;;;;;5073347;28;20072;-84
2023/11/17 09:43:57;;;;;;;33.72;14.30;;;;;;;;;;5075082;28;20103;-85
2023/11/17 09:46:26;;;;;;;35.33;13.63;;;;;;;;;;5071615;28;20017;-85
2023/11/17 09:48:53;;;;;;;30.73;13.18;;;;;;;;;;5061532;28;20025;-85
2023/11/17 09:51:18;;;;;;;35.58;14.40;;;;;;;;;;5048415;28;20025;-84
2023/11/17 09:53:45;;;;;;;33.25;13.70;;;;;;;;;;5070557;28;20115;-85
2023/11/17 09:56:10;;;;;;;35.28;13.10;;;;;;;;;;5059979;28;20021;-84
2023/11/17 09:58:36;;;;;;;34.70;13.63;;;;;;;;;;5054473;28;20028;-84
2023/11/17 10:01:02;;;;;;;31.58;12.25;;;;;;;;;;5052898;28;20017;-84
2023/11/17 10:03:27;;;;;;;32.85;13.45;;;;;;;;;;5053441;28;20108;-85
2023/11/17 10:05:55;;;;;;;34.70;13.70;;;;;;;;;;5054185;28;20025;-84
2023/11/17 10:08:20;;;;;;;34.30;13.23;;;;;;;;;;5052380;28;20040;-86
2023/11/17 10:10:47;;;;;;;29.90;12.73;;;;;;;;;;5059155;28;20356;-84
2023/11/17 10:13:13;;;;;;;33.25;13.32;;;;;;;;;;5052440;28;20044;-86
2023/11/17 10:15:44;;;;;;;35.58;12.43;;;;;;;;;;5052709;28;20021;-86
2023/11/17 10:18:12;;;;;;;34.92;14.02;;;;;;;;;;5053490;28;20025;-86
2023/11/17 10:20:37;;;;;;;32.60;12.77;;;;;;;;;;5052984;28;20024;-86
2023/11/17 10:23:06;;;;;;;34.33;13.48;;;;;;;;;;5054672;28;20021;-85
2023/11/17 10:25:32;;;;;;;31.33;13.25;;;;;;;;;;5040009;28;20016;-86
2023/11/17 10:27:58;;;;;;;30.85;13.13;;;;;;;;;;5054619;28;20096;-86
2023/11/17 10:30:25;;;;;;;30.98;13.05;;;;;;;;;;5053258;28;20102;-86
2023/11/17 10:33:13;;;;;;;28.50;12.68;;;;;;;;;;5052831;28;20491;-86
2023/11/17 10:35:39;;;;;;;29.90;13.18;;;;;;;;;;5052994;28;20021;-86
2023/11/17 10:38:05;;;;;;;30.38;13.02;;;;;;;;;;5053326;28;20107;-86
2023/11/17 10:40:35;;;;;;;34.72;13.95;;;;;;;;;;5054036;28;20093;-86
2023/11/17 10:43:04;;;;;;;33.33;14.65;;;;;;;;;;5053308;28;20488;-86
2023/11/17 10:45:30;;;;;;;33.67;13.50;;;;;;;;;;5055202;28;20024;-86
2023/11/17 10:47:55;;;;;;;32.67;13.93;;;;;;;;;;5064536;28;20507;-86
2023/11/17 10:50:22;;;;;;;33.60;12.90;;;;;;;;;;5066954;28;20471;-87
2023/11/17 10:52:47;;;;;;;26.83;12.23;;;;;;;;;;5052387;28;20115;-84
2023/11/17 10:55:12;;;;;;;33.33;13.68;;;;;;;;;;5057889;28;20048;-85
2023/11/17 10:57:41;;;;;;;36.70;13.68;;;;;;;;;;5062373;28;20016;-85
2023/11/17 11:00:21;;;;;;;31.98;13.38;;;;;;;;;;5054650;28;20066;-86
2023/11/17 11:02:47;;;;;;;29.67;12.90;;;;;;;;;;5062292;28;20119;-85
2023/11/17 11:05:12;;;;;;;35.45;14.05;;;;;;;;;;5061878;28;20032;-85
2023/11/17 11:07:44;;;;;;;33.92;14.45;;;;;;;;;;5051585;28;20056;-85
2023/11/17 11:10:14;;;;;;;37.88;13.32;;;;;;;;;;5062004;28;20107;-85
2023/11/17 11:12:40;;;;;;;27.30;12.02;;;;;;;;;;5057519;28;20044;-85
2023/11/17 11:15:14;;;;;;;33.95;13.95;;;;;;;;;;5056823;28;20025;-83
2023/11/17 11:18:04;;;;;;;32.20;13.98;;;;;;;;;;5052003;28;20358;-85
2023/11/17 11:20:31;;;;;;;31.33;13.18;;;;;;;;;;5052764;28;20017;-86
2023/11/17 11:22:56;;;;;;;29.65;12.68;;;;;;;;;;5069313;28;20024;-85
2023/11/17 11:25:22;;;;;;;32.63;13.07;;;;;;;;;;5057383;28;20490;-83
2023/11/17 11:27:48;;;;;;;32.80;14.27;;;;;;;;;;5061610;28;20031;-84
2023/11/17 11:30:16;;;;;;;30.98;13.45;;;;;;;;;;5068749;28;20040;-84
2023/11/17 11:32:44;;;;;;;32.63;14.02;;;;;;;;;;5073452;28;20024;-85
2023/11/17 11:35:09;;;;;;;29.98;12.98;;;;;;;;;;5057234;28;20028;-85
2023/11/17 11:37:35;;;;;;;31.50;13.23;;;;;;;;;;5073655;28;20017;-85
2023/11/17 11:40:01;;;;;;;33.78;14.32;;;;;;;;;;5071781;28;20077;-84
2023/11/17 11:42:26;;;;;;;35.13;12.38;;;;;;;;;;5071374;28;20020;-83
2023/11/17 11:44:52;;;;;;;36.78;14.00;;;;;;;;;;5060891;28;20032;-84
2023/11/17 11:47:18;;;;;;;39.70;16.27;;;;;;;;;;5054439;28;20047;-84
2023/11/17 11:49:44;;;;;;;33.42;14.20;;;;;;;;;;5063624;28;20029;-83
2023/11/17 11:52:30;;;;;;;32.00;13.73;;;;;;;;;;5051464;28;20025;-86
2023/11/17 11:54:56;;;;;;;33.60;13.73;;;;;;;;;;5045123;28;20021;-85
2023/11/17 11:57:25;;;;;;;33.05;13.80;;;;;;;;;;5068704;28;20521;-85
2023/11/17 11:59:51;;;;;;;37.38;16.90;;;;;;;;;;5044940;28;20052;-86
2023/11/17 12:02:17;;;;;;;34.80;15.02;;;;;;;;;;5051804;28;20052;-85
2023/11/17 12:04:51;;;;;;;34.53;14.23;;;;;;;;;;5072299;28;20059;-84
2023/11/17 12:07:31;;;;;;;31.38;13.52;;;;;;;;;;5070869;28;20026;-86
2023/11/17 12:09:58;;;;;;;40.25;15.75;;;;;;;;;;5059561;28;20028;-86
2023/11/17 12:12:24;;;;;;;29.92;11.85;;;;;;;;;;5057336;28;20392;-86
2023/11/17 12:14:51;;;;;;;26.95;10.98;;;;;;;;;;5052433;28;20017;-86
2023/11/17 12:17:16;;;;;;;26.30;12.13;;;;;;;;;;5054638;28;20082;-86
2023/11/17 12:19:41;;;;;;;24.77;10.38;;;;;;;;;;5055482;28;20107;-85
2023/11/17 12:22:08;;;;;;;25.35;11.25;;;;;;;;;;5056652;28;20112;-86
2023/11/17 12:24:36;;;;;;;25.70;10.15;;;;;;;;;;5057750;28;20029;-86
2023/11/17 12:27:05;;;;;;;26.85;11.88;;;;;;;;;;5069167;28;20021;-86
2023/11/17 12:29:32;;;;;;;24.80;11.13;;;;;;;;;;5055357;28;20025;-86
2023/11/17 12:32:03;;;;;;;23.10;10.45;;;;;;;;;;5069568;28;20093;-86
2023/11/17 12:34:28;;;;;;;26.25;11.00;;;;;;;;;;5064243;28;20439;-86
2023/11/17 12:36:56;;;;;;;30.33;11.25;;;;;;;;;;5054807;28;20017;-85
2023/11/17 12:39:33;;;;;;;28.63;11.80;;;;;;;;;;5063481;28;20016;-86
2023/11/17 12:41:58;;;;;;;25.65;9.98;;;;;;;;;;5067754;28;20039;-86
2023/11/17 12:44:25;;;;;;;24.48;9.52;;;;;;;;;;5075362;28;20095;-86
2023/11/17 12:46:51;;;;;;;30.48;11.55;;;;;;;;;;5054825;28;20032;-86
2023/11/17 12:49:17;;;;;;;27.85;9.75;;;;;;;;;;5070222;28;20021;-86
2023/11/17 12:51:45;;;;;;;22.75;9.00;;;;;;;;;;5056227;28;20480;-87
2023/11/17 12:54:14;;;;;;;23.52;9.10;;;;;;;;;;5056485;28;20016;-87
2023/11/17 12:56:39;;;;;;;22.15;8.57;;;;;;;;;;5054777;28;20472;-87
2023/11/17 12:59:04;;;;;;;26.63;9.15;;;;;;;;;;5057104;28;20024;-85
2023/11/17 13:01:30;;;;;;;23.17;9.55;;;;;;;;;;5065949;28;20036;-85
2023/11/17 13:03:56;;;;;;;21.92;8.13;;;;;;;;;;5054533;28;20392;-84
2023/11/17 13:06:25;;;;;;;18.85;8.57;;;;;;;;;;5075841;28;20043;-85
2023/11/17 13:08:51;;;;;;;17.83;8.18;;;;;;;;;;5061885;28;20553;-85
2023/11/17 13:11:16;;;;;;;20.65;8.40;;;;;;;;;;5053928;28;20511;-85
2023/11/17 13:13:43;;;;;;;21.02;8.85;;;;;;;;;;5054466;28;20032;-84
2023/11/17 13:16:09;;;;;;;21.90;8.98;;;;;;;;;;5054361;28;20032;-85
2023/11/17 13:18:35;;;;;;;22.15;8.35;;;;;;;;;;5054207;28;20539;-85
2023/11/17 13:21:00;;;;;;;16.48;7.88;;;;;;;;;;5051450;28;20052;-84
2023/11/17 13:23:27;;;;;;;18.70;8.10;;;;;;;;;;5058107;28;20047;-85
2023/11/17 13:26:06;;;;;;;23.77;8.93;;;;;;;;;;5062727;28;20025;-85
2023/11/17 13:28:38;;;;;;;19.65;8.85;;;;;;;;;;5058990;28;20021;-85
2023/11/17 13:31:14;;;;;;;19.98;8.98;;;;;;;;;;5064445;28;20020;-84
2023/11/17 13:33:41;;;;;;;21.45;8.20;;;;;;;;;;5059655;28;20171;-84
2023/11/17 13:36:06;;;;;;;20.90;8.63;;;;;;;;;;5055682;28;20020;-85
2023/11/17 13:38:32;;;;;;;20.08;8.27;;;;;;;;;;5054426;28;20021;-83
2023/11/17 13:40:57;;;;;;;18.10;8.55;;;;;;;;;;5066448;28;20016;-85
2023/11/17 13:43:23;;;;;;;19.10;9.02;;;;;;;;;;5060788;28;20028;-84
2023/11/17 13:45:50;;;;;;;20.75;8.65;;;;;;;;;;5053572;28;20033;-85
2023/11/17 13:48:15;;;;;;;23.27;8.90;;;;;;;;;;5057638;28;20032;-84
2023/11/17 13:50:54;;;;;;;24.00;9.13;;;;;;;;;;5052855;28;20074;-85
2023/11/17 13:53:21;;;;;;;23.02;9.98;;;;;;;;;;5062649;28;20028;-84
2023/11/17 13:55:46;;;;;;;22.60;8.43;;;;;;;;;;5052624;28;20378;-84
2023/11/17 13:58:12;;;;;;;23.05;9.18;;;;;;;;;;5065321;28;20068;-84
2023/11/17 14:00:38;;;;;;;23.02;9.23;;;;;;;;;;5054198;28;20062;-85
2023/11/17 14:03:04;;;;;;;19.42;8.95;;;;;;;;;;5053167;28;20079;-85
2023/11/17 14:05:32;;;;;;;20.23;9.00;;;;;;;;;;5066737;28;20021;-85
2023/11/17 14:08:01;;;;;;;20.35;9.23;;;;;;;;;;5053190;28;20028;-85
2023/11/17 14:10:26;;;;;;;20.85;9.57;;;;;;;;;;5052577;28;20380;-85
2023/11/17 14:12:51;;;;;;;22.42;10.65;;;;;;;;;;5053887;28;20070;-85
2023/11/17 14:15:19;;;;;;;23.02;9.77;;;;;;;;;;5052703;28;20017;-85
2023/11/17 14:17:44;;;;;;;24.95;9.43;;;;;;;;;;5071269;28;20461;-84